Time;durP1;ratioP1;P1;durP2;ratioP2;P2;SDS_P1;SDS_P2;PMS_P1;PMS_P2;Temp;Humidity;BMP_temperature;BMP_pressure;BME280_temperature;BME280_humidity;BME280_pressure;Samples;Min_cycle;Max_cycle;Signal;HPM_P1;HPM_P2
2023/10/22 00:02:02;;;;;;;;;;;;;;;12.03;97.80;99566.00;5075673;28;1327;-79
2023/10/22 00:04:27;;;;;;;;;;;;;;;12.03;98.15;99566.00;5073405;28;1963;-80
2023/10/22 00:06:52;;;;;;;;;;;;;;;12.06;97.98;99570.88;5069855;28;1310;-79
2023/10/22 00:09:18;;;;;;;;;;;;;;;12.03;98.86;99560.81;5072162;28;1526;-79
2023/10/22 00:11:43;;;;;;;;;;;;;;;12.02;98.16;99580.00;5065791;28;1230;-78
2023/10/22 00:14:08;;;;;;;;;;;;;;;12.01;98.22;99578.38;5065765;28;1255;-79
2023/10/22 00:16:33;;;;;;;;;;;;;;;12.00;98.69;99587.16;5062501;28;1148;-78
2023/10/22 00:18:58;;;;;;;;;;;;;;;11.99;98.99;99575.13;5069277;28;1297;-79
2023/10/22 00:21:23;;;;;;;;;;;;;;;12.00;99.44;99575.94;5062618;28;1408;-79
2023/10/22 00:23:49;;;;;;;;;;;;;;;12.00;99.27;99592.34;5066414;28;1898;-79
2023/10/22 00:26:14;;;;;;;;;;;;;;;11.99;99.04;99593.31;5060751;28;1354;-78
2023/10/22 00:28:39;;;;;;;;;;;;;;;11.99;99.54;99606.31;5063677;28;1154;-80
2023/10/22 00:31:04;;;;;;;;;;;;;;;12.00;99.09;99594.94;5065484;28;1270;-79
2023/10/22 00:33:29;;;;;;;;;;;;;;;11.98;99.65;99599.47;5064621;28;1230;-79
2023/10/22 00:36:00;;;;;;;;;;;;;;;11.97;99.47;99608.25;5061671;28;1253;-79
2023/10/22 00:38:26;;;;;;;;;;;;;;;11.99;99.38;99611.50;5066731;28;1156;-78
2023/10/22 00:40:51;;;;;;;;;;;;;;;11.95;99.73;99616.22;5067485;28;991;-79
2023/10/22 00:43:16;;;;;;;;;;;;;;;11.95;99.76;99623.19;5071450;28;1894;-78
2023/10/22 00:45:42;;;;;;;;;;;;;;;11.93;100.00;99614.78;5064128;28;1093;-79
2023/10/22 00:48:08;;;;;;;;;;;;;;;11.92;100.00;99615.72;5070365;28;1069;-80
2023/10/22 00:50:34;;;;;;;;;;;;;;;11.92;99.98;99615.72;5065305;28;1019;-79
2023/10/22 00:52:59;;;;;;;;;;;;;;;11.92;100.00;99615.72;5064929;28;1318;-79
2023/10/22 00:55:25;;;;;;;;;;;;;;;11.89;100.00;99616.88;5067040;28;1091;-79
2023/10/22 00:57:51;;;;;;;;;;;;;;;11.90;100.00;99617.69;5069706;28;1085;-79
2023/10/22 01:00:18;;;;;;;;;;;;;;;11.92;100.00;99616.53;5075190;28;1011;-78
2023/10/22 01:02:43;;;;;;;;;;;;;;;11.94;100.00;99624.19;5072807;28;1229;-79
2023/10/22 01:05:08;;;;;;;;;;;;;;;11.94;100.00;99629.38;5065308;28;1890;-79
2023/10/22 01:07:34;;;;;;;;;;;;;;;11.95;100.00;99616.22;5068421;28;1118;-79
2023/10/22 01:09:59;;;;;;;;;;;;;;;11.97;100.00;99634.22;5070459;28;1219;-79
2023/10/22 01:12:32;;;;;;;;;;;;;;;12.02;100.00;99631.97;5070374;28;1203;-78
2023/10/22 01:14:57;;;;;;;;;;;;;;;11.99;99.92;99641.88;5061630;28;1228;-79
2023/10/22 01:17:22;;;;;;;;;;;;;;;11.98;100.00;99625.47;5066333;28;1384;-79
2023/10/22 01:19:47;;;;;;;;;;;;;;;12.01;100.00;99637.31;5063255;28;1524;-79
2023/10/22 01:22:12;;;;;;;;;;;;;;;12.02;99.59;99642.34;5064557;28;1308;-79
2023/10/22 01:24:38;;;;;;;;;;;;;;;12.03;100.00;99632.78;5059949;28;1893;-78
2023/10/22 01:27:03;;;;;;;;;;;;;;;12.03;99.86;99632.78;5056621;28;1279;-79
2023/10/22 01:29:28;;;;;;;;;;;;;;;12.05;99.31;99644.63;5065921;28;1156;-80
2023/10/22 01:31:53;;;;;;;;;;;;;;;12.04;99.36;99645.59;5061134;28;1608;-79
2023/10/22 01:34:18;;;;;;;;;;;;;;;12.06;99.71;99648.84;5058388;28;1240;-79
2023/10/22 01:36:45;;;;;;;;;;;;;;;12.05;99.60;99657.63;5072592;28;1223;-79
2023/10/22 01:39:14;;;;;;;;;;;;;;;11.99;100.00;99663.50;5065916;28;1252;-80
2023/10/22 01:41:41;;;;;;;;;;;;;;;11.93;100.00;99674.53;5058227;28;1300;-79
2023/10/22 01:44:06;;;;;;;;;;;;;;;11.87;100.00;99664.75;5058819;28;1902;-79
2023/10/22 01:46:31;;;;;;;;;;;;;;;11.80;100.00;99669.75;5060890;28;1232;-79
2023/10/22 01:48:57;;;;;;;;;;;;;;;11.73;100.00;99684.38;5065170;28;1730;-80
2023/10/22 01:51:22;;;;;;;;;;;;;;;11.77;100.00;99687.47;5071329;28;1142;-80
2023/10/22 01:53:47;;;;;;;;;;;;;;;11.66;100.00;99688.59;5059271;28;1231;-79
2023/10/22 01:56:12;;;;;;;;;;;;;;;11.62;100.00;99688.09;5067441;28;1274;-80
2023/10/22 01:58:37;;;;;;;;;;;;;;;11.57;100.00;99681.75;5068770;28;1444;-79
2023/10/22 02:01:03;;;;;;;;;;;;;;;11.54;100.00;99685.47;5069056;28;1287;-79
2023/10/22 02:03:28;;;;;;;;;;;;;;;11.49;100.00;99690.34;5068946;28;1906;-80
2023/10/22 02:05:54;;;;;;;;;;;;;;;11.44;100.00;99700.38;5061651;28;1290;-78
2023/10/22 02:08:19;;;;;;;;;;;;;;;11.38;100.00;99707.03;5073088;28;1113;-79
2023/10/22 02:10:47;;;;;;;;;;;;;;;11.34;100.00;99704.88;5067106;28;1307;-80
2023/10/22 02:13:12;;;;;;;;;;;;;;;11.34;100.00;99704.88;5062865;28;1207;-79
2023/10/22 02:15:37;;;;;;;;;;;;;;;11.31;100.00;99721.59;5065260;28;1283;-79
2023/10/22 02:18:02;;;;;;;;;;;;;;;11.32;100.00;99722.41;5059100;28;1358;-80
2023/10/22 02:20:28;;;;;;;;;;;;;;;11.27;100.00;99724.66;5064313;28;1423;-80
2023/10/22 02:22:53;;;;;;;;;;;;;;;11.27;100.00;99727.25;5060604;28;1538;-80
2023/10/22 02:25:18;;;;;;;;;;;;;;;11.27;100.00;99740.25;5061673;28;1951;-80
2023/10/22 02:27:43;;;;;;;;;;;;;;;11.29;100.00;99743.47;5062303;28;1397;-79
2023/10/22 02:30:08;;;;;;;;;;;;;;;11.28;100.00;99752.25;5058702;28;1421;-80
2023/10/22 02:32:34;;;;;;;;;;;;;;;11.28;100.00;99753.06;5060965;28;1301;-80
2023/10/22 02:34:59;;;;;;;;;;;;;;;11.30;100.00;99750.31;5055206;28;1397;-80
2023/10/22 02:37:24;;;;;;;;;;;;;;;11.32;100.00;99756.16;5056124;28;1161;-80
2023/10/22 02:39:49;;;;;;;;;;;;;;;11.31;100.00;99762.31;5074967;28;1126;-79
2023/10/22 02:42:14;;;;;;;;;;;;;;;11.35;100.00;99763.63;5070419;28;1157;-79
2023/10/22 02:44:40;;;;;;;;;;;;;;;11.27;100.00;99771.38;5065753;28;2010;-80
2023/10/22 02:47:05;;;;;;;;;;;;;;;11.26;100.00;99777.56;5064460;28;1151;-80
2023/10/22 02:49:30;;;;;;;;;;;;;;;11.26;100.00;99785.34;5062736;28;1329;-80
2023/10/22 02:51:56;;;;;;;;;;;;;;;11.27;100.00;99786.97;5077004;28;1098;-80
2023/10/22 02:54:21;;;;;;;;;;;;;;;11.25;100.00;99788.91;5066814;28;1102;-79
2023/10/22 02:56:47;;;;;;;;;;;;;;;11.31;100.00;99791.69;5076175;28;1097;-79
2023/10/22 02:59:12;;;;;;;;;;;;;;;11.24;100.00;99808.88;5074078;28;1213;-79
2023/10/22 03:01:37;;;;;;;;;;;;;;;11.25;100.00;99820.06;5076389;28;1130;-80
2023/10/22 03:04:02;;;;;;;;;;;;;;;11.28;100.00;99814.53;5072003;28;1893;-80
2023/10/22 03:06:27;;;;;;;;;;;;;;;11.31;100.00;99824.63;5072257;28;1095;-80
2023/10/22 03:08:53;;;;;;;;;;;;;;;11.26;100.00;99826.88;5065787;28;1285;-79
2023/10/22 03:11:18;;;;;;;;;;;;;;;11.28;100.00;99827.50;5072258;28;1148;-80
2023/10/22 03:13:44;;;;;;;;;;;;;;;11.25;100.00;99836.44;5071585;28;1039;-79
2023/10/22 03:16:11;;;;;;;;;;;;;;;11.26;100.00;99842.44;5066611;28;1212;-80
2023/10/22 03:18:37;;;;;;;;;;;;;;;11.30;100.00;99838.59;5063577;28;1171;-80
2023/10/22 03:21:09;;;;;;;;;;;;;;;11.27;100.00;99854.44;5072195;28;1357;-79
2023/10/22 03:23:34;;;;;;;;;;;;;;;11.31;100.00;99850.59;5064422;28;1921;-80
2023/10/22 03:26:05;;;;;;;;;;;;;;;11.28;100.00;99862.06;5063375;28;1219;-79
2023/10/22 03:28:30;;;;;;;;;;;;;;;11.27;100.00;99870.03;5062927;28;1420;-80
2023/10/22 03:30:58;;;;;;;;;;;;;;;11.28;100.00;99876.84;5065170;28;1246;-80
2023/10/22 03:33:23;;;;;;;;;;;;;;;11.23;100.00;99879.88;5058135;28;1203;-79
2023/10/22 03:35:48;;;;;;;;;;;;;;;11.21;100.00;99891.41;5060596;28;1279;-78
2023/10/22 03:38:13;;;;;;;;;;;;;;;11.21;100.00;99906.97;5063683;28;1223;-79
2023/10/22 03:40:38;;;;;;;;;;;;;;;11.17;100.00;99917.66;5062533;28;1258;-79
2023/10/22 03:43:04;;;;;;;;;;;;;;;11.14;100.00;99912.78;5061626;28;1576;-80
2023/10/22 03:45:31;;;;;;;;;;;;;;;11.15;100.00;99911.00;5067780;28;1889;-80
2023/10/22 03:47:56;;;;;;;;;;;;;;;11.14;100.00;99925.75;5069247;28;1214;-80
2023/10/22 03:50:21;;;;;;;;;;;;;;;11.10;100.00;99929.59;5064350;28;1450;-80
2023/10/22 03:52:46;;;;;;;;;;;;;;;11.10;100.00;99927.00;5062585;28;1220;-79
2023/10/22 03:55:11;;;;;;;;;;;;;;;11.13;100.00;99931.91;5066062;28;1272;-80
2023/10/22 03:57:37;;;;;;;;;;;;;;;11.08;100.00;99951.50;5065206;28;1191;-80
2023/10/22 04:00:05;;;;;;;;;;;;;;;11.02;100.00;99955.50;5087786;28;1190;-80
2023/10/22 04:02:30;;;;;;;;;;;;;;;11.02;100.00;99960.69;5069731;28;1326;-79
2023/10/22 04:04:55;;;;;;;;;;;;;;;11.00;100.00;99962.59;5069585;28;1962;-79
2023/10/22 04:07:21;;;;;;;;;;;;;;;11.05;100.00;99975.94;5067010;28;1374;-79
2023/10/22 04:09:46;;;;;;;;;;;;;;;11.06;100.00;99977.56;5073861;28;1212;-79
2023/10/22 04:12:11;;;;;;;;;;;;;;;11.08;100.00;99988.63;5074837;28;1192;-79
2023/10/22 04:14:36;;;;;;;;;;;;;;;11.04;100.00;99994.25;5074255;28;1270;-80
2023/10/22 04:17:01;;;;;;;;;;;;;;;11.13;100.00;99994.19;5071266;28;1231;-77
2023/10/22 04:19:27;;;;;;;;;;;;;;;11.01;100.00;99995.38;5079964;28;1230;-77
2023/10/22 04:21:52;;;;;;;;;;;;;;;10.99;100.00;100012.84;5073402;28;1294;-77
2023/10/22 04:24:17;;;;;;;;;;;;;;;10.97;100.00;100009.59;5075729;28;1890;-77
2023/10/22 04:26:42;;;;;;;;;;;;;;;10.97;100.00;100025.19;5058402;28;1337;-76
2023/10/22 04:29:07;;;;;;;;;;;;;;;10.96;100.00;100027.94;5072406;28;1321;-77
2023/10/22 04:31:33;;;;;;;;;;;;;;;10.97;100.00;100035.56;5064701;28;1184;-77
2023/10/22 04:33:58;;;;;;;;;;;;;;;10.96;100.00;100038.31;5063572;28;1094;-78
2023/10/22 04:36:23;;;;;;;;;;;;;;;10.98;100.00;100037.19;5071129;28;1298;-79
2023/10/22 04:38:48;;;;;;;;;;;;;;;10.94;100.00;100041.03;5065434;28;1211;-80
2023/10/22 04:41:15;;;;;;;;;;;;;;;10.97;100.00;100048.53;5066690;28;1062;-79
2023/10/22 04:43:41;;;;;;;;;;;;;;;10.99;100.00;100043.19;5062386;28;1977;-80
2023/10/22 04:46:06;;;;;;;;;;;;;;;10.96;100.00;100052.09;5067166;28;1171;-79
2023/10/22 04:48:32;;;;;;;;;;;;;;;10.96;100.00;100054.69;5064171;28;1178;-79
2023/10/22 04:50:59;;;;;;;;;;;;;;;10.96;100.00;100059.88;5072822;28;1173;-79
2023/10/22 04:53:24;;;;;;;;;;;;;;;10.95;100.00;100066.00;5064608;28;1419;-79
2023/10/22 04:55:56;;;;;;;;;;;;;;;10.93;100.00;100070.53;5069901;28;1141;-79
2023/10/22 04:58:21;;;;;;;;;;;;;;;10.90;100.00;100066.47;5063249;28;1171;-78
2023/10/22 05:00:47;;;;;;;;;;;;;;;10.92;100.00;100074.09;5073950;28;1195;-79
2023/10/22 05:03:12;;;;;;;;;;;;;;;10.91;100.00;100082.84;5070434;28;1967;-79
2023/10/22 05:05:38;;;;;;;;;;;;;;;10.88;100.00;100083.94;5070173;28;1174;-79
2023/10/22 05:08:03;;;;;;;;;;;;;;;10.87;100.00;100086.69;5055938;28;1040;-79
2023/10/22 05:10:28;;;;;;;;;;;;;;;10.82;100.00;100099.25;5063284;28;1077;-79
2023/10/22 05:12:53;;;;;;;;;;;;;;;10.79;100.00;100094.38;5069084;28;1282;-78
2023/10/22 05:15:18;;;;;;;;;;;;;;;10.80;100.00;100108.97;5073070;28;1004;-79
2023/10/22 05:17:44;;;;;;;;;;;;;;;10.79;100.00;100109.94;5075697;28;1119;-79
2023/10/22 05:20:09;;;;;;;;;;;;;;;10.79;100.00;100115.13;5070384;28;1274;-79
2023/10/22 05:22:34;;;;;;;;;;;;;;;10.79;100.00;100115.13;5064264;28;1351;-79
2023/10/22 05:25:00;;;;;;;;;;;;;;;10.79;100.00;100125.50;5062306;28;1902;-79
2023/10/22 05:27:25;;;;;;;;;;;;;;;10.80;100.00;100127.13;5064307;28;1220;-79
2023/10/22 05:29:50;;;;;;;;;;;;;;;10.79;100.00;100125.50;5071057;28;1195;-79
2023/10/22 05:32:15;;;;;;;;;;;;;;;10.80;100.00;100134.91;5058979;28;1374;-79
2023/10/22 05:34:42;;;;;;;;;;;;;;;10.81;100.00;100144.31;5066780;28;1132;-78
2023/10/22 05:37:07;;;;;;;;;;;;;;;10.80;100.00;100147.88;5067235;28;1674;-79
2023/10/22 05:39:32;;;;;;;;;;;;;;;10.79;100.00;100151.44;5071233;28;1232;-78
2023/10/22 05:41:58;;;;;;;;;;;;;;;10.79;100.00;100156.63;5069804;28;1248;-79
2023/10/22 05:44:24;;;;;;;;;;;;;;;10.79;100.00;100159.22;5069571;28;1890;-79
2023/10/22 05:46:49;;;;;;;;;;;;;;;10.78;100.00;100154.97;5062578;28;1398;-79
2023/10/22 05:49:16;;;;;;;;;;;;;;;10.77;100.00;100174.09;5068381;28;1093;-79
2023/10/22 05:51:42;;;;;;;;;;;;;;;10.77;100.00;100174.09;5066245;28;1338;-79
2023/10/22 05:54:07;;;;;;;;;;;;;;;10.75;100.00;100182.03;5066373;28;1209;-79
2023/10/22 05:56:32;;;;;;;;;;;;;;;10.74;100.00;100187.38;5070519;28;1305;-79
2023/10/22 05:58:58;;;;;;;;;;;;;;;10.75;100.00;100196.78;5064666;28;1665;-77
2023/10/22 06:01:24;;;;;;;;;;;;;;;10.71;100.00;100206.59;5064666;28;1307;-78
2023/10/22 06:03:49;;;;;;;;;;;;;;;10.67;100.00;100199.25;5058807;28;1898;-79
2023/10/22 06:06:18;;;;;;;;;;;;;;;10.64;100.00;100198.56;5062372;28;1234;-78
2023/10/22 06:08:44;;;;;;;;;;;;;;;10.59;100.00;100213.72;5062022;28;1650;-78
2023/10/22 06:11:09;;;;;;;;;;;;;;;10.57;100.00;100214.84;5058308;28;1537;-79
2023/10/22 06:13:34;;;;;;;;;;;;;;;10.55;100.00;100216.75;5057430;28;1285;-79
2023/10/22 06:15:59;;;;;;;;;;;;;;;10.52;100.00;100223.03;5062980;28;1314;-79
2023/10/22 06:18:24;;;;;;;;;;;;;;;10.47;100.00;100233.00;5069864;28;1132;-77
2023/10/22 06:20:49;;;;;;;;;;;;;;;10.42;100.00;100227.41;5068964;28;1211;-78
2023/10/22 06:23:15;;;;;;;;;;;;;;;10.40;100.00;100233.72;5066964;28;1898;-78
2023/10/22 06:25:42;;;;;;;;;;;;;;;10.39;100.00;100238.06;5065881;28;1645;-78
2023/10/22 06:28:07;;;;;;;;;;;;;;;10.37;100.00;100237.38;5065382;28;1281;-78
2023/10/22 06:30:32;;;;;;;;;;;;;;;10.35;100.00;100247.06;5061663;28;1385;-79
2023/10/22 06:32:58;;;;;;;;;;;;;;;10.33;100.00;100254.19;5063938;28;1178;-79
2023/10/22 06:35:26;;;;;;;;;;;;;;;10.29;100.00;100253.63;5065653;28;1200;-78
2023/10/22 06:37:51;;;;;;;;;;;;;;;10.27;100.00;100267.69;5066527;28;1319;-78
2023/10/22 06:40:17;;;;;;;;;;;;;;;10.25;100.00;100272.19;5066874;28;1090;-78
2023/10/22 06:42:42;;;;;;;;;;;;;;;10.25;100.00;100282.53;5069620;28;1160;-79
2023/10/22 06:45:07;;;;;;;;;;;;;;;10.23;100.00;100274.06;5061921;28;1918;-79
2023/10/22 06:47:39;;;;;;;;;;;;;;;10.19;100.00;100293.41;5070058;28;1172;-79
2023/10/22 06:50:08;;;;;;;;;;;;;;;10.17;100.00;100284.97;5072590;28;1139;-78
2023/10/22 06:52:34;;;;;;;;;;;;;;;10.15;100.00;100286.88;5071453;28;1096;-79
2023/10/22 06:54:59;;;;;;;;;;;;;;;10.11;100.00;100288.94;5057509;28;1075;-79
2023/10/22 06:57:24;;;;;;;;;;;;;;;10.08;100.00;100294.38;5066276;28;1198;-78
2023/10/22 06:59:52;;;;;;;;;;;;;;;10.04;100.00;100299.00;5064753;28;1005;-79
2023/10/22 07:02:18;;;;;;;;;;;;;;;10.06;100.00;100304.06;5063331;28;1288;-79
2023/10/22 07:04:44;;;;;;;;;;;;;;;10.05;100.00;100308.41;5068524;28;1902;-79
2023/10/22 07:07:10;;;;;;;;;;;;;;;10.01;100.00;100311.41;5062475;28;1248;-78
2023/10/22 07:09:35;;;;;;;;;;;;;;;9.98;100.00;100317.69;5063448;28;1042;-79
2023/10/22 07:12:00;;;;;;;;;;;;;;;9.97;100.00;100326.38;5066034;28;1341;-79
2023/10/22 07:14:26;;;;;;;;;;;;;;;9.97;100.00;100326.38;5064473;28;1236;-79
2023/10/22 07:16:52;;;;;;;;;;;;;;;9.97;100.00;100336.75;5062841;28;1425;-78
2023/10/22 07:19:17;;;;;;;;;;;;;;;9.98;100.00;100348.78;5062686;28;1048;-79
2023/10/22 07:21:42;;;;;;;;;;;;;;;9.98;100.00;100348.78;5061309;28;1516;-78
2023/10/22 07:24:07;;;;;;;;;;;;;;;9.98;100.00;100348.78;5069446;28;1902;-78
2023/10/22 07:26:32;;;;;;;;;;;;;;;9.95;100.00;100359.38;5070053;28;1333;-79
2023/10/22 07:28:58;;;;;;;;;;;;;;;9.95;100.00;100364.56;5067771;28;1481;-79
2023/10/22 07:31:23;;;;;;;;;;;;;;;9.95;100.00;100355.97;5067125;28;1370;-78
2023/10/22 07:33:49;;;;;;;;;;;;;;;9.95;100.00;100364.56;5067692;28;1255;-78
2023/10/22 07:36:14;;;;;;;;;;;;;;;9.97;100.00;100373.03;5071879;28;1344;-79
2023/10/22 07:38:40;;;;;;;;;;;;;;;9.97;100.00;100380.78;5066536;28;1412;-78
2023/10/22 07:41:07;;;;;;;;;;;;;;;9.99;100.00;100381.50;5070634;28;1207;-79
2023/10/22 07:43:32;;;;;;;;;;;;;;;10.02;100.00;100383.00;5075121;28;1948;-78
2023/10/22 07:45:59;;;;;;;;;;;;;;;10.04;100.00;100389.69;5076371;28;1180;-78
2023/10/22 07:48:24;;;;;;;;;;;;;;;10.05;100.00;100393.94;5067990;28;1290;-78
2023/10/22 07:50:49;;;;;;;;;;;;;;;10.10;100.00;100393.53;5077593;28;1134;-78
2023/10/22 07:53:15;;;;;;;;;;;;;;;10.11;100.00;100401.16;5074245;28;1311;-79
2023/10/22 07:55:42;;;;;;;;;;;;;;;10.13;100.00;100403.63;5066920;28;1238;-79
2023/10/22 07:58:07;;;;;;;;;;;;;;;10.18;100.00;100395.44;5065137;28;1359;-79
2023/10/22 08:00:32;;;;;;;;;;;;;;;10.23;100.00;100398.47;5067493;28;1174;-79
2023/10/22 08:02:57;;;;;;;;;;;;;;;10.27;100.00;100399.88;5068769;28;1362;-79
2023/10/22 08:05:23;;;;;;;;;;;;;;;10.33;100.00;100399.34;5066408;28;1992;-78
2023/10/22 08:07:48;;;;;;;;;;;;;;;10.41;100.00;100402.06;5070418;28;1315;-79
2023/10/22 08:10:13;;;;;;;;;;;;;;;10.47;100.00;100404.13;5065636;28;1706;-79
2023/10/22 08:12:38;;;;;;;;;;;;;;;10.52;100.00;100401.94;5063797;28;1250;-79
2023/10/22 08:15:04;;;;;;;;;;;;;;;10.55;100.00;100414.66;5069064;28;1339;-79
2023/10/22 08:17:29;;;;;;;;;;;;;;;10.61;100.00;100414.13;5061581;28;1473;-79
2023/10/22 08:19:54;;;;;;;;;;;;;;;10.64;100.00;100413.00;5060392;28;1351;-79
2023/10/22 08:22:19;;;;;;;;;;;;;;;10.65;100.00;100409.47;5068702;28;1148;-77
2023/10/22 08:24:48;;;;;;;;;;;;;;;10.69;100.00;100405.66;5070423;28;1960;-79
2023/10/22 08:27:14;;;;;;;;;;;;;;;10.71;100.00;100413.28;5062489;28;1223;-78
2023/10/22 08:29:39;;;;;;;;;;;;;;;10.74;100.00;100423.41;5064470;28;1244;-79
2023/10/22 08:32:04;;;;;;;;;;;;;;;10.79;100.00;100421.22;5068044;28;1346;-79
2023/10/22 08:34:29;;;;;;;;;;;;;;;10.81;100.00;100424.50;5069394;28;1146;-78
2023/10/22 08:36:55;;;;;;;;;;;;;;;10.85;100.00;100436.25;5068874;28;1131;-78
2023/10/22 08:39:20;;;;;;;;;;;;;;;10.89;100.00;100438.41;5073395;28;1023;-79
2023/10/22 08:41:53;;;;;;;;;;;;;;;10.95;100.00;100434.44;5074577;28;1113;-79
2023/10/22 08:44:18;;;;;;;;;;;;;;;10.99;100.00;100433.22;5070603;28;1990;-78
2023/10/22 08:46:43;;;;;;;;;;;;;;;11.08;100.00;100447.16;5066059;28;1048;-79
2023/10/22 08:49:10;;;;;;;;;;;;;;;11.09;100.00;100451.38;5065713;28;1230;-79
2023/10/22 08:51:35;;;;;;;;;;;;;;;11.14;100.00;100447.44;5063229;28;1157;-79
2023/10/22 08:54:03;;;;;;;;;;;;;;;11.17;100.00;100454.91;5071842;28;1151;-78
2023/10/22 08:56:29;;;;;;;;;;;;;;;11.24;100.00;100449.19;5067356;28;1478;-79
2023/10/22 08:58:57;;;;;;;;;;;;;;;11.28;100.00;100458.34;5062155;28;1285;-79
2023/10/22 09:01:25;;;;;;;;;;;;;;;11.33;100.00;100462.16;5086382;28;1163;-78
2023/10/22 09:03:50;;;;;;;;;;;;;;;11.39;100.00;100466.78;5068627;28;1943;-79
2023/10/22 09:06:16;;;;;;;;;;;;;;;11.45;100.00;100468.00;5062432;28;1406;-79
2023/10/22 09:08:42;;;;;;;;;;;;;;;11.49;100.00;100471.16;5063519;28;1258;-78
2023/10/22 09:11:14;;;;;;;;;;;;;;;11.54;100.00;100480.16;5065130;28;1227;-79
2023/10/22 09:13:40;;;;;;;;;;;;;;;11.62;100.00;100487.25;5079278;28;1442;-80
2023/10/22 09:16:06;;;;;;;;;;;;;;;11.63;100.00;100476.72;5061190;28;1804;-79
2023/10/22 09:18:31;;;;;;;;;;;;;;;11.67;100.00;100488.47;5065433;28;1582;-78
2023/10/22 09:21:05;;;;;;;;;;;;;;;11.73;100.00;100494.06;5059639;28;2014;-78
2023/10/22 09:23:30;;;;;;;;;;;;;;;11.76;100.00;100496.41;5060380;28;1960;-77
2023/10/22 09:25:56;;;;;;;;;;;;;;;11.80;100.00;100495.13;5064408;28;1268;-79
2023/10/22 09:28:24;;;;;;;;;;;;;;;11.87;100.00;100497.09;5060132;28;1293;-78
2023/10/22 09:31:00;;;;;;;;;;;;;;;11.85;100.00;100498.16;5066543;28;1263;-78
2023/10/22 09:33:31;;;;;;;;;;;;;;;11.88;100.00;100503.09;5060273;28;1196;-79
2023/10/22 09:36:05;;;;;;;;;;;;;;;11.92;100.00;100504.44;5066494;28;1183;-79
2023/10/22 09:38:49;;;;;;;;;;;;;;;11.96;100.00;100511.00;5066088;28;1207;-78
2023/10/22 09:41:18;;;;;;;;;;;;;;;11.98;100.00;100514.25;5071338;28;1696;-78
2023/10/22 09:43:43;;;;;;;;;;;;;;;12.03;100.00;100522.47;5069679;28;2329;-77
2023/10/22 09:46:08;;;;;;;;;;;;;;;12.09;100.00;100511.47;5059438;28;1300;-79
2023/10/22 09:48:36;;;;;;;;;;;;;;;12.13;100.00;100518.03;5066598;28;1316;-79
2023/10/22 09:51:06;;;;;;;;;;;;;;;12.21;100.00;100525.97;5062128;28;1820;-78
2023/10/22 09:53:36;;;;;;;;;;;;;;;12.25;100.00;100520.47;5063552;28;1247;-78
2023/10/22 09:56:01;;;;;;;;;;;;;;;12.32;100.00;100539.72;5062418;28;1686;-78
2023/10/22 09:58:29;;;;;;;;;;;;;;;12.36;100.00;100541.09;5062856;28;1267;-79
2023/10/22 10:00:56;;;;;;;;;;;;;;;12.37;100.00;100540.13;5057387;28;1344;-77
2023/10/22 10:03:21;;;;;;;;;;;;;;;12.41;100.00;100547.50;5061728;28;1298;-79
2023/10/22 10:05:47;;;;;;;;;;;;;;;12.46;100.00;100544.47;5065184;28;1979;-79
2023/10/22 10:08:13;;;;;;;;;;;;;;;12.50;100.00;100540.59;5059944;28;1559;-79
2023/10/22 10:10:39;;;;;;;;;;;;;;;12.51;100.00;100552.66;5054911;28;1285;-78
2023/10/22 10:13:05;;;;;;;;;;;;;;;12.53;100.00;100544.72;5061417;28;1068;-79
2023/10/22 10:15:34;;;;;;;;;;;;;;;12.54;100.00;100547.16;5065282;28;1245;-77
2023/10/22 10:18:01;;;;;;;;;;;;;;;12.57;100.00;100557.28;5067690;28;1219;-78
2023/10/22 10:20:27;;;;;;;;;;;;;;;12.56;100.00;100560.00;5061888;28;1297;-78
2023/10/22 10:23:01;;;;;;;;;;;;;;;12.57;100.00;100567.69;5063947;28;1393;-78
2023/10/22 10:25:27;;;;;;;;;;;;;;;12.59;100.00;100570.16;5065058;28;1961;-78
2023/10/22 10:27:53;;;;;;;;;;;;;;;12.63;100.00;100572.31;5065928;28;1410;-78
2023/10/22 10:30:20;;;;;;;;;;;;;;;12.67;100.00;100568.47;5062485;28;1228;-79
2023/10/22 10:32:46;;;;;;;;;;;;;;;12.69;100.00;100566.53;5059776;28;1632;-79
2023/10/22 10:35:11;;;;;;;;;;;;;;;12.73;100.00;100560.09;5058582;28;1609;-78
2023/10/22 10:37:36;;;;;;;;;;;;;;;12.72;100.00;100571.44;5062061;28;1262;-78
2023/10/22 10:40:04;;;;;;;;;;;;;;;12.74;100.00;100569.53;5061454;28;1238;-79
2023/10/22 10:42:29;;;;;;;;;;;;;;;12.77;100.00;100571.00;5060638;28;1211;-79
2023/10/22 10:44:54;;;;;;;;;;;;;;;12.80;100.00;100577.72;5068510;28;1909;-78
2023/10/22 10:47:19;;;;;;;;;;;;;;;12.86;100.00;100577.13;5071090;28;1433;-79
2023/10/22 10:50:03;;;;;;;;;;;;;;;12.87;100.00;100578.78;5061151;28;1486;-80
2023/10/22 10:52:30;;;;;;;;;;;;;;;12.88;100.00;100575.19;5064489;28;1492;-79
2023/10/22 10:54:59;;;;;;;;;;;;;;;12.92;100.00;100576.53;5059370;28;1262;-79
2023/10/22 10:57:35;;;;;;;;;;;;;;;12.95;100.00;100576.25;5060427;28;1611;-80
2023/10/22 11:00:01;;;;;;;;;;;;;;;13.03;100.00;100576.34;5061809;28;1187;-79
2023/10/22 11:02:26;;;;;;;;;;;;;;;13.01;100.00;100580.84;5060612;28;1191;-81
2023/10/22 11:04:51;;;;;;;;;;;;;;;13.03;100.00;100584.16;5067823;28;1997;-79
2023/10/22 11:07:18;;;;;;;;;;;;;;;13.06;100.00;100578.63;5059489;28;1270;-78
2023/10/22 11:09:43;;;;;;;;;;;;;;;13.12;100.00;100588.47;5063367;28;1201;-80
2023/10/22 11:12:08;;;;;;;;;;;;;;;13.11;100.00;100580.81;5065678;28;1681;-78
2023/10/22 11:14:35;;;;;;;;;;;;;;;13.12;100.00;100598.06;5068381;28;1532;-79
2023/10/22 11:17:00;;;;;;;;;;;;;;;13.12;100.00;100604.09;5070255;28;1393;-80
2023/10/22 11:19:27;;;;;;;;;;;;;;;13.15;100.00;100593.38;5071389;28;1606;-79
2023/10/22 11:21:54;;;;;;;;;;;;;;;13.17;100.00;100601.84;5068175;28;1345;-79
2023/10/22 11:24:20;;;;;;;;;;;;;;;13.23;100.00;100600.47;5072289;28;1918;-79
2023/10/22 11:26:47;;;;;;;;;;;;;;;13.24;100.00;100608.13;5066797;28;1650;-79
2023/10/22 11:29:12;;;;;;;;;;;;;;;13.24;100.00;100613.34;5065711;28;1176;-79
2023/10/22 11:31:37;;;;;;;;;;;;;;;13.26;100.00;100595.81;5073965;28;1242;-79
2023/10/22 11:34:15;;;;;;;;;;;;;;;13.27;100.00;100602.66;5059297;28;1250;-79
2023/10/22 11:36:40;;;;;;;;;;;;;;;13.31;100.00;100613.59;5058725;28;1486;-78
2023/10/22 11:39:15;;;;;;;;;;;;;;;13.28;100.00;100612.09;5062853;28;1119;-79
2023/10/22 11:41:41;;;;;;;;;;;;;;;13.33;100.00;100616.06;5060255;28;1242;-79
2023/10/22 11:44:08;;;;;;;;;;;;;;;13.35;100.00;100620.13;5068165;28;1973;-78
2023/10/22 11:46:41;;;;;;;;;;;;;;;13.33;100.00;100622.06;5058588;28;1238;-79
2023/10/22 11:49:06;;;;;;;;;;;;;;;13.34;100.00;100621.09;5059187;28;1314;-79
2023/10/22 11:51:41;;;;;;;;;;;;;;;13.35;100.00;100630.56;5068544;28;1013;-79
2023/10/22 11:54:06;;;;;;;;;;;;;;;13.37;100.00;100635.63;5065045;28;1280;-79
2023/10/22 11:56:31;;;;;;;;;;;;;;;13.37;100.00;100639.06;5062895;28;1363;-78
2023/10/22 11:58:56;;;;;;;;;;;;;;;13.41;100.00;100644.78;5069809;28;1070;-80
2023/10/22 12:01:22;;;;;;;;;;;;;;;13.40;99.49;100648.34;5063247;28;1239;-79
2023/10/22 12:03:47;;;;;;;;;;;;;;;13.42;99.77;100646.41;5073471;28;1906;-80
2023/10/22 12:06:12;;;;;;;;;;;;;;;13.43;99.01;100645.47;5061077;28;1749;-79
2023/10/22 12:08:37;;;;;;;;;;;;;;;13.44;98.49;100639.28;5063951;28;1087;-78
2023/10/22 12:11:03;;;;;;;;;;;;;;;13.47;99.18;100645.00;5066923;28;1325;-79
2023/10/22 12:13:28;;;;;;;;;;;;;;;13.53;98.85;100648.78;5069835;28;1168;-79
2023/10/22 12:15:53;;;;;;;;;;;;;;;13.51;98.44;100661.16;5072679;28;1277;-78
2023/10/22 12:18:18;;;;;;;;;;;;;;;13.49;97.90;100657.91;5072313;28;1068;-80
2023/10/22 12:20:43;;;;;;;;;;;;;;;13.50;98.45;100664.75;5069794;28;1226;-80
2023/10/22 12:23:11;;;;;;;;;;;;;;;13.48;97.50;100661.47;5071680;28;1221;-80
2023/10/22 12:25:36;;;;;;;;;;;;;;;13.49;96.41;100658.72;5070767;28;1959;-80
2023/10/22 12:28:01;;;;;;;;;;;;;;;13.51;97.09;100661.16;5071126;28;1219;-80
2023/10/22 12:30:26;;;;;;;;;;;;;;;13.51;96.76;100661.16;5070897;28;1231;-79
2023/10/22 12:32:52;;;;;;;;;;;;;;;13.50;95.07;100665.56;5068670;28;1247;-80
2023/10/22 12:35:17;;;;;;;;;;;;;;;13.49;95.94;100669.13;5065873;28;1298;-79
2023/10/22 12:37:42;;;;;;;;;;;;;;;13.47;95.97;100672.84;5066517;28;1281;-80